Time;durP1;ratioP1;P1;durP2;ratioP2;P2;SDS_P1;SDS_P2;PMS_P1;PMS_P2;Temp;Humidity;BMP_temperature;BMP_pressure;BME280_temperature;BME280_humidity;BME280_pressure;Samples;Min_cycle;Max_cycle;Signal;HPM_P1;HPM_P2
2021/01/08 00:00:30;;;;;;;22.25;13.80;;;4.10;99.90;;;;;;5074452;28;20234;-47
2021/01/08 00:02:57;;;;;;;20.15;15.43;;;4.40;99.90;;;;;;5074108;28;20227;-47
2021/01/08 00:05:24;;;;;;;20.48;13.85;;;4.30;99.90;;;;;;5074279;28;20216;-46
2021/01/08 00:07:50;;;;;;;19.38;13.90;;;4.20;99.90;;;;;;5074320;28;20225;-47
2021/01/08 00:10:17;;;;;;;21.75;15.20;;;4.40;99.90;;;;;;5074213;28;20664;-47
2021/01/08 00:12:43;;;;;;;22.27;14.30;;;4.30;99.90;;;;;;5074187;28;20188;-46
2021/01/08 00:15:11;;;;;;;20.58;13.70;;;4.20;99.90;;;;;;5074009;28;20223;-47
2021/01/08 00:17:38;;;;;;;23.35;15.38;;;4.30;99.90;;;;;;5074175;28;20195;-48
2021/01/08 00:20:06;;;;;;;22.15;14.15;;;4.30;99.90;;;;;;5072613;28;20199;-47
2021/01/08 00:22:32;;;;;;;21.58;14.98;;;4.40;99.90;;;;;;5072341;28;20204;-48
2021/01/08 00:24:59;;;;;;;22.95;14.60;;;4.30;99.90;;;;;;5073665;28;20602;-47
2021/01/08 00:27:25;;;;;;;21.80;14.65;;;4.40;99.90;;;;;;5072490;28;20278;-47
2021/01/08 00:29:52;;;;;;;24.13;15.23;;;4.40;99.90;;;;;;5073820;28;20726;-47
2021/01/08 00:32:20;;;;;;;20.63;14.15;;;4.20;99.90;;;;;;5073555;28;20245;-46
2021/01/08 00:34:47;;;;;;;25.40;15.77;;;4.40;99.90;;;;;;5073794;28;20272;-48
2021/01/08 00:37:14;;;;;;;20.45;13.40;;;4.30;99.90;;;;;;5074230;28;20218;-47
2021/01/08 00:39:41;;;;;;;32.72;18.15;;;4.20;99.90;;;;;;5074167;28;20214;-47
2021/01/08 00:42:08;;;;;;;22.63;16.15;;;4.30;99.90;;;;;;5073737;28;20707;-46
2021/01/08 00:44:35;;;;;;;25.70;15.98;;;4.20;99.90;;;;;;5073436;28;20683;-46
2021/01/08 00:47:02;;;;;;;19.58;15.20;;;4.10;99.90;;;;;;5073534;28;20245;-45
2021/01/08 00:49:29;;;;;;;26.13;16.17;;;4.30;99.90;;;;;;5073557;28;20730;-46
2021/01/08 00:51:58;;;;;;;24.80;15.35;;;4.20;99.90;;;;;;5073705;28;20600;-46
2021/01/08 00:54:26;;;;;;;24.67;15.45;;;4.00;99.90;;;;;;5073141;28;20262;-46
2021/01/08 00:57:06;;;;;;;22.10;15.60;;;4.30;99.90;;;;;;5072341;28;20213;-47
2021/01/08 00:59:37;;;;;;;23.33;17.15;;;4.20;99.90;;;;;;5071987;28;20592;-46
2021/01/08 01:02:03;;;;;;;20.92;15.45;;;4.30;99.90;;;;;;5073298;28;20195;-47
2021/01/08 01:04:31;;;;;;;23.25;15.23;;;4.10;99.90;;;;;;5071998;28;20706;-47
2021/01/08 01:06:57;;;;;;;24.10;16.80;;;3.60;99.90;;;;;;5073075;28;20208;-48
2021/01/08 01:09:24;;;;;;;25.52;16.35;;;4.20;99.90;;;;;;5073632;28;20199;-45
2021/01/08 01:11:50;;;;;;;24.55;16.52;;;4.30;99.90;;;;;;5071795;28;20618;-45
2021/01/08 01:14:17;;;;;;;26.10;18.15;;;4.00;99.90;;;;;;5073168;28;20272;-46
2021/01/08 01:16:44;;;;;;;23.98;15.98;;;4.20;99.90;;;;;;5073166;28;20211;-46
2021/01/08 01:19:11;;;;;;;24.02;15.38;;;4.10;99.90;;;;;;5073056;28;20229;-46
2021/01/08 01:21:38;;;;;;;25.45;16.60;;;4.30;99.90;;;;;;5073027;28;20442;-46
2021/01/08 01:24:05;;;;;;;25.08;16.55;;;4.10;99.90;;;;;;5072385;28;20227;-47
2021/01/08 01:26:33;;;;;;;23.55;16.98;;;4.40;99.90;;;;;;5072423;28;20694;-46
2021/01/08 01:29:00;;;;;;;26.77;17.23;;;4.10;99.90;;;;;;5072815;28;20247;-46
2021/01/08 01:31:27;;;;;;;22.83;16.58;;;3.90;99.90;;;;;;5072762;28;20194;-46
2021/01/08 01:33:53;;;;;;;25.85;16.50;;;4.30;99.90;;;;;;5072388;28;20212;-46
2021/01/08 01:36:20;;;;;;;26.67;17.73;;;3.90;99.90;;;;;;5072691;28;20686;-46
2021/01/08 01:38:47;;;;;;;23.73;16.88;;;4.20;99.90;;;;;;5071311;28;20211;-48
2021/01/08 01:41:14;;;;;;;26.77;16.63;;;4.10;99.90;;;;;;5072474;28;20195;-45
2021/01/08 01:43:40;;;;;;;25.67;17.98;;;4.20;99.90;;;;;;5070813;28;20222;-45
2021/01/08 01:46:07;;;;;;;23.52;16.27;;;4.00;99.90;;;;;;5072395;28;20195;-46
2021/01/08 01:48:33;;;;;;;23.50;16.48;;;3.90;99.90;;;;;;5072711;28;20187;-46
2021/01/08 01:51:00;;;;;;;27.08;17.55;;;3.90;99.90;;;;;;5072775;28;20199;-46
2021/01/08 01:53:27;;;;;;;26.70;17.52;;;4.00;99.90;;;;;;5071922;28;20257;-47
2021/01/08 01:55:55;;;;;;;22.83;15.27;;;4.20;99.90;;;;;;5072341;28;20188;-45
2021/01/08 01:58:23;;;;;;;27.65;17.52;;;3.90;99.90;;;;;;5072501;28;20242;-46
2021/01/08 02:00:49;;;;;;;26.70;17.35;;;4.00;99.90;;;;;;5072235;28;20207;-46
2021/01/08 02:03:23;;;;;;;26.88;17.33;;;3.80;99.90;;;;;;5071854;28;20199;-46
2021/01/08 02:05:54;;;;;;;27.10;16.98;;;3.90;99.90;;;;;;5072411;28;20199;-47
2021/01/08 02:08:24;;;;;;;28.88;18.17;;;4.00;99.90;;;;;;5070643;28;20195;-47
2021/01/08 02:10:58;;;;;;;21.55;16.08;;;4.00;99.90;;;;;;5072099;28;20195;-43
2021/01/08 02:13:29;;;;;;;23.40;16.38;;;3.90;99.90;;;;;;5071929;28;20191;-47
2021/01/08 02:15:57;;;;;;;25.60;16.48;;;4.20;99.90;;;;;;5071771;28;20221;-49
2021/01/08 02:18:24;;;;;;;22.90;16.50;;;3.90;99.90;;;;;;5071975;28;20191;-47
2021/01/08 02:20:53;;;;;;;22.95;16.25;;;4.10;99.90;;;;;;5071811;28;20203;-47
2021/01/08 02:23:25;;;;;;;24.85;16.48;;;4.10;99.90;;;;;;5071234;28;20298;-47
2021/01/08 02:25:54;;;;;;;29.92;17.02;;;4.10;99.90;;;;;;5071905;28;20589;-48
2021/01/08 02:28:24;;;;;;;26.60;17.00;;;4.00;99.90;;;;;;5071841;28;20191;-47
2021/01/08 02:30:52;;;;;;;22.60;16.52;;;4.20;99.90;;;;;;5071785;28;20235;-47
2021/01/08 02:33:19;;;;;;;22.15;14.70;;;4.30;99.90;;;;;;5071371;28;20199;-47
2021/01/08 02:35:48;;;;;;;25.48;16.65;;;4.10;99.90;;;;;;5071605;28;20226;-46
2021/01/08 02:38:20;;;;;;;24.40;17.45;;;4.00;99.90;;;;;;5071723;28;20234;-48
2021/01/08 02:40:48;;;;;;;22.70;15.48;;;3.90;99.90;;;;;;5071762;28;20570;-47
2021/01/08 02:43:21;;;;;;;21.75;15.48;;;4.10;99.90;;;;;;5069838;28;20570;-47
2021/01/08 02:45:48;;;;;;;24.75;16.88;;;4.10;99.90;;;;;;5070416;28;20574;-49
2021/01/08 02:48:15;;;;;;;23.80;16.02;;;4.10;99.90;;;;;;5071667;28;20248;-47
2021/01/08 02:50:42;;;;;;;25.10;15.65;;;4.20;99.90;;;;;;5071738;28;20197;-47
2021/01/08 02:53:12;;;;;;;29.42;16.73;;;4.00;99.90;;;;;;5071177;28;20218;-47
2021/01/08 02:55:45;;;;;;;21.65;15.85;;;4.20;99.90;;;;;;5071534;28;20249;-48
2021/01/08 02:58:12;;;;;;;23.42;15.95;;;4.00;99.90;;;;;;5071531;28;20202;-47
2021/01/08 03:00:41;;;;;;;25.60;17.15;;;4.00;99.90;;;;;;5071694;28;20554;-46
2021/01/08 03:03:08;;;;;;;25.25;14.95;;;4.00;99.90;;;;;;5071003;28;20198;-45
2021/01/08 03:05:35;;;;;;;24.98;15.63;;;4.20;99.90;;;;;;5071418;28;20202;-47
2021/01/08 03:08:02;;;;;;;26.17;17.73;;;4.20;99.90;;;;;;5071634;28;20191;-46
2021/01/08 03:10:28;;;;;;;23.85;17.13;;;4.00;99.90;;;;;;5071456;28;20207;-46
2021/01/08 03:12:58;;;;;;;24.02;17.30;;;4.00;99.90;;;;;;5071177;28;20204;-46
2021/01/08 03:15:25;;;;;;;25.48;16.65;;;4.10;99.90;;;;;;5071394;28;20242;-46
2021/01/08 03:17:52;;;;;;;22.63;14.73;;;3.90;99.90;;;;;;5071393;28;20337;-46
2021/01/08 03:20:19;;;;;;;22.48;16.42;;;4.00;99.90;;;;;;5071308;28;20191;-46
2021/01/08 03:22:45;;;;;;;24.35;18.00;;;3.90;99.90;;;;;;5071082;28;20227;-46
2021/01/08 03:25:12;;;;;;;25.10;17.42;;;4.10;99.90;;;;;;5071561;28;20249;-46
2021/01/08 03:27:39;;;;;;;28.67;16.80;;;3.90;99.90;;;;;;5071330;28;20192;-46
2021/01/08 03:30:08;;;;;;;27.77;18.60;;;3.90;99.90;;;;;;5074993;28;20191;-47
2021/01/08 03:32:35;;;;;;;26.75;16.45;;;4.10;99.90;;;;;;5074663;28;20199;-46
2021/01/08 03:35:03;;;;;;;34.63;18.10;;;4.10;99.90;;;;;;5074778;28;20259;-46
2021/01/08 03:37:29;;;;;;;23.85;16.75;;;3.80;99.90;;;;;;5075101;28;20203;-46
2021/01/08 03:39:56;;;;;;;24.30;17.83;;;4.20;99.90;;;;;;5074826;28;20274;-45
2021/01/08 03:42:22;;;;;;;24.85;16.55;;;3.90;99.90;;;;;;5074584;28;20191;-46
2021/01/08 03:44:49;;;;;;;25.02;18.35;;;4.10;99.90;;;;;;5073357;28;20219;-46
2021/01/08 03:47:15;;;;;;;23.17;16.50;;;3.90;99.90;;;;;;5074663;28;20195;-46
2021/01/08 03:49:42;;;;;;;24.70;16.65;;;4.10;99.90;;;;;;5074597;28;20215;-47
2021/01/08 03:52:09;;;;;;;23.75;17.65;;;4.20;99.90;;;;;;5074552;28;20199;-45
2021/01/08 03:54:37;;;;;;;23.92;16.20;;;4.30;99.90;;;;;;5073973;28;20207;-46
2021/01/08 03:57:04;;;;;;;23.02;16.42;;;4.40;99.90;;;;;;5074487;28;20188;-46
2021/01/08 03:59:31;;;;;;;30.45;17.88;;;4.30;99.90;;;;;;5073369;28;20203;-46
2021/01/08 04:01:57;;;;;;;29.20;17.10;;;4.40;99.90;;;;;;5073590;28;20686;-46
2021/01/08 04:04:24;;;;;;;26.15;17.15;;;4.40;99.90;;;;;;5074006;28;20280;-46
2021/01/08 04:06:51;;;;;;;27.88;17.88;;;4.30;99.90;;;;;;5074239;28;20226;-46
2021/01/08 04:09:19;;;;;;;29.83;18.02;;;4.30;99.90;;;;;;5074641;28;20198;-46
2021/01/08 04:11:45;;;;;;;28.35;18.50;;;4.10;99.90;;;;;;5074188;28;20199;-45
2021/01/08 04:14:12;;;;;;;26.67;18.00;;;4.10;99.90;;;;;;5073731;28;20649;-46
2021/01/08 04:16:41;;;;;;;28.40;19.42;;;4.40;99.90;;;;;;5074151;28;20194;-45
2021/01/08 04:19:07;;;;;;;30.25;18.55;;;4.30;99.90;;;;;;5074035;28;20188;-45
2021/01/08 04:21:34;;;;;;;27.27;19.60;;;4.20;99.90;;;;;;5073865;28;20195;-46
2021/01/08 04:24:01;;;;;;;27.75;19.10;;;4.20;99.90;;;;;;5073688;28;20233;-47
2021/01/08 04:26:28;;;;;;;26.20;18.13;;;4.30;99.90;;;;;;5073948;28;20562;-47
2021/01/08 04:28:55;;;;;;;27.65;17.98;;;4.10;99.90;;;;;;5073924;28;20195;-46
2021/01/08 04:31:22;;;;;;;29.90;19.42;;;4.10;99.90;;;;;;5073717;28;20202;-47
2021/01/08 04:33:48;;;;;;;29.10;18.65;;;3.50;99.90;;;;;;5073400;28;20276;-46
2021/01/08 04:36:15;;;;;;;31.08;18.80;;;3.90;99.90;;;;;;5073716;28;20195;-46
2021/01/08 04:38:42;;;;;;;23.92;16.88;;;3.90;99.90;;;;;;5073717;28;20286;-46
2021/01/08 04:41:09;;;;;;;29.58;19.73;;;4.10;99.90;;;;;;5073720;28;20192;-47
2021/01/08 04:43:37;;;;;;;29.48;19.63;;;3.90;99.90;;;;;;5073376;28;20707;-46
2021/01/08 04:46:07;;;;;;;31.08;17.67;;;4.10;99.90;;;;;;5073387;28;20199;-46
2021/01/08 04:48:35;;;;;;;33.65;19.50;;;4.00;99.90;;;;;;5074172;28;20191;-46
2021/01/08 04:51:04;;;;;;;29.70;17.95;;;4.10;99.90;;;;;;5073516;28;20248;-46
2021/01/08 04:53:32;;;;;;;27.48;17.40;;;3.80;99.90;;;;;;5073162;28;20223;-46
2021/01/08 04:56:03;;;;;;;27.83;18.45;;;3.90;99.90;;;;;;5073247;28;20215;-48
2021/01/08 04:58:31;;;;;;;33.97;20.10;;;4.00;99.90;;;;;;5073306;28;20195;-46
2021/01/08 05:00:59;;;;;;;27.40;18.98;;;3.90;99.90;;;;;;5073220;28;20215;-46
2021/01/08 05:03:25;;;;;;;27.08;18.67;;;3.90;99.90;;;;;;5072628;28;20188;-47
2021/01/08 05:05:52;;;;;;;31.00;19.95;;;3.60;99.90;;;;;;5073132;28;20230;-46
2021/01/08 05:08:19;;;;;;;29.45;18.50;;;4.10;99.90;;;;;;5073160;28;20264;-47
2021/01/08 05:10:45;;;;;;;31.20;18.50;;;3.70;99.90;;;;;;5073109;28;20217;-46
2021/01/08 05:13:12;;;;;;;27.73;18.65;;;4.00;99.90;;;;;;5072407;28;20204;-46
2021/01/08 05:15:40;;;;;;;30.02;17.60;;;4.10;99.90;;;;;;5072876;28;20230;-47
2021/01/08 05:18:08;;;;;;;30.35;19.45;;;4.00;99.90;;;;;;5072803;28;20627;-47
2021/01/08 05:20:36;;;;;;;27.73;19.42;;;3.90;99.90;;;;;;5072831;28;20195;-46
2021/01/08 05:23:04;;;;;;;29.95;18.20;;;4.20;99.90;;;;;;5072489;28;20245;-46
2021/01/08 05:25:31;;;;;;;46.65;19.55;;;3.90;99.90;;;;;;5072399;28;20234;-47
2021/01/08 05:27:58;;;;;;;28.33;18.95;;;4.40;99.90;;;;;;5072641;28;20683;-46
2021/01/08 05:30:27;;;;;;;30.95;19.13;;;4.30;99.90;;;;;;5072733;28;20592;-47
2021/01/08 05:32:58;;;;;;;34.95;20.52;;;4.60;99.90;;;;;;5072245;28;20195;-46
2021/01/08 05:35:26;;;;;;;31.15;19.58;;;4.10;99.90;;;;;;5072441;28;20601;-46
2021/01/08 05:37:54;;;;;;;28.38;17.73;;;4.30;99.90;;;;;;5072590;28;20199;-46
2021/01/08 05:40:27;;;;;;;28.23;18.55;;;4.50;99.90;;;;;;5072744;28;20683;-46
2021/01/08 05:42:56;;;;;;;26.58;17.17;;;4.40;99.90;;;;;;5071994;28;20589;-47
2021/01/08 05:45:23;;;;;;;31.55;20.38;;;4.20;99.90;;;;;;5072175;28;20212;-47
2021/01/08 05:47:51;;;;;;;30.35;19.30;;;4.40;99.90;;;;;;5070716;28;20211;-47
2021/01/08 05:50:19;;;;;;;35.00;22.27;;;4.40;99.90;;;;;;5072095;28;20184;-47
2021/01/08 05:52:50;;;;;;;31.98;19.50;;;4.30;99.90;;;;;;5070325;28;20203;-47
2021/01/08 05:55:17;;;;;;;31.00;19.42;;;4.50;99.90;;;;;;5071979;28;20218;-47
2021/01/08 05:57:44;;;;;;;28.00;17.83;;;4.40;99.90;;;;;;5072135;28;20195;-46
2021/01/08 06:00:11;;;;;;;32.15;18.23;;;4.40;99.90;;;;;;5071919;28;20698;-46
2021/01/08 06:02:38;;;;;;;32.50;18.42;;;4.50;99.90;;;;;;5071775;28;20195;-48
2021/01/08 06:05:10;;;;;;;38.63;19.10;;;4.50;99.90;;;;;;5071589;28;20598;-46
2021/01/08 06:07:38;;;;;;;24.42;16.75;;;4.50;99.90;;;;;;5070509;28;20187;-47
2021/01/08 06:10:07;;;;;;;30.13;20.05;;;4.70;99.90;;;;;;5071818;28;20243;-47
2021/01/08 06:12:38;;;;;;;26.98;16.00;;;4.60;99.90;;;;;;5071356;28;20235;-47
2021/01/08 06:15:11;;;;;;;25.92;16.80;;;4.40;99.90;;;;;;5071721;28;20219;-46
2021/01/08 06:17:39;;;;;;;25.25;17.60;;;4.60;99.90;;;;;;5072107;28;20202;-46
2021/01/08 06:20:07;;;;;;;31.40;18.73;;;4.30;99.90;;;;;;5071630;28;20191;-46
2021/01/08 06:22:38;;;;;;;27.90;19.05;;;4.40;99.90;;;;;;5071319;28;20198;-47
2021/01/08 06:25:07;;;;;;;34.08;18.67;;;4.30;99.90;;;;;;5071419;28;20773;-47
2021/01/08 06:27:35;;;;;;;28.67;19.05;;;4.30;99.90;;;;;;5071583;28;20192;-47
2021/01/08 06:30:05;;;;;;;25.30;17.33;;;4.30;99.90;;;;;;5071579;28;20241;-47
2021/01/08 06:32:33;;;;;;;27.92;17.85;;;4.40;99.90;;;;;;5071054;28;20195;-48
2021/01/08 06:35:05;;;;;;;32.10;21.80;;;4.40;99.90;;;;;;5071318;28;20284;-46
2021/01/08 06:37:41;;;;;;;33.28;19.10;;;4.20;99.90;;;;;;5071285;28;20200;-46
2021/01/08 06:40:11;;;;;;;27.30;19.02;;;4.30;99.90;;;;;;5069951;28;20225;-47
2021/01/08 06:42:45;;;;;;;31.00;19.35;;;4.30;99.90;;;;;;5069675;28;20195;-46
2021/01/08 06:45:17;;;;;;;26.60;19.00;;;4.30;99.90;;;;;;5071348;28;20206;-46
2021/01/08 06:47:45;;;;;;;37.50;20.98;;;4.30;99.90;;;;;;5071083;28;20217;-47
2021/01/08 06:50:17;;;;;;;32.83;20.98;;;4.30;99.90;;;;;;5071606;28;20644;-46
2021/01/08 06:52:45;;;;;;;30.02;21.30;;;4.30;99.90;;;;;;5070938;28;20298;-46
2021/01/08 06:55:18;;;;;;;31.55;21.33;;;4.40;99.90;;;;;;5070998;28;20222;-46
2021/01/08 06:57:53;;;;;;;28.25;20.08;;;4.40;99.90;;;;;;5071126;28;20195;-47
2021/01/08 07:00:27;;;;;;;27.35;18.52;;;4.30;99.90;;;;;;5071376;28;20217;-46
2021/01/08 07:02:57;;;;;;;28.48;20.00;;;4.20;99.90;;;;;;5072911;28;20608;-47
2021/01/08 07:05:25;;;;;;;25.92;19.70;;;4.40;99.90;;;;;;5075127;28;20294;-47
2021/01/08 07:07:54;;;;;;;28.50;19.05;;;4.60;99.90;;;;;;5075179;28;20199;-47
2021/01/08 07:10:21;;;;;;;32.55;20.45;;;4.60;99.90;;;;;;5073964;28;20203;-48
2021/01/08 07:12:53;;;;;;;26.67;19.08;;;4.50;99.90;;;;;;5074834;28;20200;-46
2021/01/08 07:15:20;;;;;;;31.85;18.67;;;4.20;99.90;;;;;;5075011;28;20325;-46
2021/01/08 07:17:54;;;;;;;25.50;18.60;;;4.40;99.90;;;;;;5075183;28;20202;-47
2021/01/08 07:20:21;;;;;;;33.70;20.02;;;4.10;99.90;;;;;;5074961;28;20682;-46
2021/01/08 07:22:55;;;;;;;28.00;18.80;;;4.60;99.90;;;;;;5074519;28;20187;-46
2021/01/08 07:25:25;;;;;;;40.20;21.30;;;4.50;99.90;;;;;;5077792;28;20219;-43
2021/01/08 07:27:53;;;;;;;28.75;19.77;;;4.50;99.90;;;;;;5077786;28;20261;-46
2021/01/08 07:30:21;;;;;;;28.15;19.23;;;4.50;99.90;;;;;;5078061;28;20282;-46
2021/01/08 07:32:51;;;;;;;39.88;20.98;;;4.50;99.90;;;;;;5078073;28;20257;-47
2021/01/08 07:35:20;;;;;;;30.85;20.27;;;4.60;99.90;;;;;;5076431;28;20244;-46
2021/01/08 07:37:58;;;;;;;32.83;20.92;;;4.60;99.90;;;;;;5077679;28;20188;-45
2021/01/08 07:40:26;;;;;;;26.17;18.52;;;4.40;99.90;;;;;;5077097;28;20195;-47
2021/01/08 07:43:01;;;;;;;34.63;21.25;;;4.60;99.90;;;;;;5074657;28;20272;-45
2021/01/08 07:45:49;;;;;;;34.80;20.60;;;4.30;99.90;;;;;;5076434;28;20234;-43
2021/01/08 07:48:17;;;;;;;31.65;19.33;;;4.40;99.90;;;;;;5074370;28;20290;-47
2021/01/08 07:50:55;;;;;;;37.35;21.73;;;4.40;99.90;;;;;;5074254;28;20214;-47
2021/01/08 07:53:44;;;;;;;27.75;20.17;;;4.30;99.90;;;;;;5074065;28;20191;-46
2021/01/08 07:56:13;;;;;;;30.42;18.63;;;4.40;99.90;;;;;;5074052;28;20223;-46
2021/01/08 07:58:40;;;;;;;28.48;19.23;;;4.20;99.90;;;;;;5074342;28;20201;-45
2021/01/08 08:01:07;;;;;;;28.17;18.90;;;4.10;99.90;;;;;;5074280;28;20548;-46
2021/01/08 08:03:34;;;;;;;32.63;21.38;;;4.40;99.90;;;;;;5073746;28;20208;-45
2021/01/08 08:06:01;;;;;;;30.65;19.25;;;4.30;99.90;;;;;;5074186;28;20226;-46
2021/01/08 08:08:28;;;;;;;29.85;19.85;;;4.30;99.90;;;;;;5074319;28;20640;-46
2021/01/08 08:11:08;;;;;;;28.75;19.63;;;4.10;99.90;;;;;;5074213;28;20195;-47
2021/01/08 08:13:36;;;;;;;40.58;20.75;;;4.40;99.90;;;;;;5073015;28;20683;-46
2021/01/08 08:16:04;;;;;;;29.73;19.60;;;4.30;99.90;;;;;;5073978;28;20223;-46
2021/01/08 08:18:30;;;;;;;32.20;19.88;;;4.40;99.90;;;;;;5073936;28;20191;-47
2021/01/08 08:21:07;;;;;;;29.60;19.70;;;4.40;99.90;;;;;;5073785;28;20187;-47
2021/01/08 08:23:34;;;;;;;28.33;19.70;;;4.30;99.90;;;;;;5073250;28;20221;-46
2021/01/08 08:26:00;;;;;;;30.90;20.80;;;4.40;99.90;;;;;;5073437;28;20195;-46
2021/01/08 08:28:27;;;;;;;34.58;21.08;;;4.30;99.90;;;;;;5073707;28;20191;-47
2021/01/08 08:30:56;;;;;;;31.30;19.92;;;4.50;99.90;;;;;;5073415;28;20213;-47
2021/01/08 08:33:23;;;;;;;31.67;20.13;;;4.00;99.90;;;;;;5073284;28;20203;-46
2021/01/08 08:35:50;;;;;;;32.55;20.10;;;4.20;99.90;;;;;;5073298;28;20211;-46
2021/01/08 08:38:17;;;;;;;30.45;20.23;;;4.70;99.90;;;;;;5073442;28;20203;-46
2021/01/08 08:40:44;;;;;;;36.55;19.67;;;3.70;99.90;;;;;;5073638;28;20272;-47
2021/01/08 08:43:20;;;;;;;30.08;19.88;;;3.70;99.90;;;;;;5072719;28;20191;-46
2021/01/08 08:45:46;;;;;;;31.40;19.23;;;4.40;99.90;;;;;;5073333;28;20211;-47
2021/01/08 08:48:14;;;;;;;31.77;20.23;;;4.60;99.90;;;;;;5073358;28;20191;-47
2021/01/08 08:50:44;;;;;;;31.90;20.45;;;4.20;99.90;;;;;;5073276;28;20200;-46
2021/01/08 08:53:11;;;;;;;32.40;21.38;;;4.50;99.90;;;;;;5072506;28;20188;-46
2021/01/08 08:55:38;;;;;;;30.60;19.83;;;4.70;99.90;;;;;;5071812;28;20232;-48
2021/01/08 08:58:06;;;;;;;33.80;20.95;;;4.50;99.90;;;;;;5073183;28;20684;-46
2021/01/08 09:00:34;;;;;;;31.95;20.27;;;4.80;99.90;;;;;;5073175;28;20675;-47
2021/01/08 09:03:01;;;;;;;32.70;21.50;;;4.60;99.90;;;;;;5069232;28;20200;-48
2021/01/08 09:05:33;;;;;;;29.23;20.15;;;4.40;99.90;;;;;;5070789;28;20269;-47
2021/01/08 09:08:09;;;;;;;31.38;18.83;;;4.60;99.90;;;;;;5078943;28;20207;-49
2021/01/08 09:10:39;;;;;;;37.47;21.77;;;4.50;99.90;;;;;;5093011;28;20269;-47
2021/01/08 09:13:11;;;;;;;34.65;20.98;;;4.60;99.90;;;;;;5072869;28;20686;-47
2021/01/08 09:15:49;;;;;;;32.03;20.25;;;4.40;99.90;;;;;;5072385;28;20219;-47
2021/01/08 09:18:30;;;;;;;32.55;20.92;;;4.60;99.90;;;;;;5086820;28;20194;-48
2021/01/08 09:21:02;;;;;;;31.58;21.05;;;4.80;99.90;;;;;;5079128;28;20202;-47
2021/01/08 09:26:03;;;;;;;32.60;20.92;;;4.60;99.90;;;;;;5029387;28;20271;-48
2021/01/08 09:28:30;;;;;;;30.45;20.13;;;4.50;99.90;;;;;;5032866;28;20204;-46
2021/01/08 09:30:56;;;;;;;29.27;19.15;;;4.50;99.90;;;;;;5032815;28;20661;-44
2021/01/08 09:33:23;;;;;;;33.17;20.42;;;4.60;99.90;;;;;;5032727;28;20617;-45
2021/01/08 09:35:50;;;;;;;32.10;21.80;;;4.60;99.90;;;;;;5035393;28;20208;-43
2021/01/08 09:38:24;;;;;;;34.55;19.98;;;4.60;99.90;;;;;;5016162;28;20197;-46
2021/01/08 09:40:51;;;;;;;39.45;22.20;;;4.60;99.90;;;;;;5033044;28;20192;-45
2021/01/08 09:43:18;;;;;;;34.05;21.17;;;4.60;99.90;;;;;;5032145;28;20295;-45
2021/01/08 09:45:45;;;;;;;40.70;20.20;;;4.70;99.90;;;;;;5032556;28;20212;-45
2021/01/08 09:48:22;;;;;;;31.58;19.48;;;4.50;99.90;;;;;;5109638;27;20933;-47
2021/01/08 09:51:00;;;;;;;30.77;20.77;;;4.60;99.90;;;;;;5109650;28;20196;-47
2021/01/08 09:53:26;;;;;;;29.60;19.88;;;4.70;99.90;;;;;;5109296;28;20213;-47
2021/01/08 09:55:53;;;;;;;30.48;20.58;;;4.60;99.90;;;;;;5089398;28;20631;-47
2021/01/08 09:58:20;;;;;;;30.55;19.63;;;4.70;99.90;;;;;;5089164;28;20193;-46
2021/01/08 10:00:50;;;;;;;31.33;20.15;;;4.60;99.90;;;;;;5090882;28;20635;-45
2021/01/08 10:03:21;;;;;;;34.78;21.58;;;4.50;99.90;;;;;;5090562;28;20651;-45
2021/01/08 10:05:48;;;;;;;34.25;22.40;;;5.00;99.90;;;;;;5090742;28;20583;-46
2021/01/08 10:08:20;;;;;;;30.23;19.92;;;4.70;99.90;;;;;;5090398;28;20253;-45
2021/01/08 10:10:47;;;;;;;32.55;20.88;;;4.90;99.90;;;;;;5087938;28;20189;-46
2021/01/08 10:13:19;;;;;;;29.58;20.17;;;5.10;99.90;;;;;;5070130;28;20244;-47
2021/01/08 10:15:47;;;;;;;27.85;19.25;;;4.90;99.90;;;;;;5088397;28;20220;-45
2021/01/08 10:18:16;;;;;;;27.83;18.63;;;5.10;99.90;;;;;;5073040;28;20640;-46
2021/01/08 10:20:46;;;;;;;30.23;19.80;;;4.80;99.90;;;;;;5072053;28;20187;-47
2021/01/08 10:23:14;;;;;;;35.15;22.33;;;4.80;99.90;;;;;;5070242;28;20559;-47
2021/01/08 10:25:42;;;;;;;33.85;21.42;;;4.70;99.90;;;;;;5069918;28;20227;-45
2021/01/08 10:28:17;;;;;;;28.75;18.75;;;4.90;99.90;;;;;;5070056;28;20219;-47
2021/01/08 10:30:46;;;;;;;27.73;19.25;;;4.70;99.90;;;;;;5069903;28;20278;-46
2021/01/08 10:33:13;;;;;;;28.20;19.02;;;5.00;99.90;;;;;;5069535;28;20221;-46
2021/01/08 10:35:49;;;;;;;26.23;18.70;;;4.90;99.90;;;;;;5069802;28;20397;-46
2021/01/08 10:38:16;;;;;;;32.30;19.48;;;4.80;99.90;;;;;;5072964;28;20320;-45
2021/01/08 10:40:43;;;;;;;27.48;20.10;;;4.80;99.90;;;;;;5089729;28;20260;-47
2021/01/08 10:43:10;;;;;;;31.65;19.73;;;4.80;99.90;;;;;;5090019;28;20209;-46
2021/01/08 10:45:36;;;;;;;27.48;17.70;;;4.90;99.90;;;;;;5090605;28;20421;-46
2021/01/08 10:48:03;;;;;;;26.73;17.40;;;4.70;99.90;;;;;;5092078;28;20219;-45
2021/01/08 10:50:30;;;;;;;30.98;20.30;;;4.80;99.90;;;;;;5092876;28;20612;-45
2021/01/08 10:52:57;;;;;;;30.25;18.65;;;4.80;99.90;;;;;;5092521;28;20252;-46
2021/01/08 10:55:24;;;;;;;27.17;18.10;;;4.90;99.90;;;;;;5089703;28;20222;-45
2021/01/08 10:57:50;;;;;;;31.33;17.92;;;5.00;99.90;;;;;;5086893;28;20468;-45
2021/01/08 11:00:19;;;;;;;27.65;19.65;;;4.90;99.90;;;;;;5074747;28;20249;-45
2021/01/08 11:02:46;;;;;;;27.70;17.02;;;5.10;99.90;;;;;;5076787;28;20198;-44
2021/01/08 11:05:13;;;;;;;25.25;17.45;;;5.00;99.90;;;;;;5076088;28;20223;-45
2021/01/08 11:07:40;;;;;;;25.15;17.55;;;5.00;99.90;;;;;;5077087;28;20316;-45
2021/01/08 11:10:08;;;;;;;25.40;17.92;;;4.90;99.90;;;;;;5075864;28;20253;-46
2021/01/08 11:12:35;;;;;;;27.13;18.90;;;4.80;99.90;;;;;;5092684;28;20203;-46
2021/01/08 11:15:02;;;;;;;24.13;17.70;;;4.90;99.90;;;;;;5096438;28;20865;-46
2021/01/08 11:17:29;;;;;;;25.80;17.55;;;4.80;99.90;;;;;;5096022;28;20193;-45
2021/01/08 11:19:55;;;;;;;27.98;18.52;;;4.80;99.90;;;;;;5095457;28;20553;-46
2021/01/08 11:22:22;;;;;;;23.30;17.05;;;4.80;99.90;;;;;;5096140;28;20195;-45
2021/01/08 11:24:49;;;;;;;27.83;18.55;;;5.10;99.90;;;;;;5095381;28;20222;-45
2021/01/08 11:27:16;;;;;;;28.80;19.73;;;4.80;99.90;;;;;;5095672;28;20219;-47
2021/01/08 11:29:43;;;;;;;27.05;18.30;;;4.80;99.90;;;;;;5095845;28;20551;-46
2021/01/08 11:32:10;;;;;;;29.10;18.58;;;4.70;99.90;;;;;;5101078;28;20289;-47
2021/01/08 11:34:44;;;;;;;27.27;16.77;;;4.70;99.90;;;;;;5101732;28;20260;-45
2021/01/08 11:37:13;;;;;;;26.15;19.60;;;4.80;99.90;;;;;;5097311;28;20206;-46
2021/01/08 11:39:41;;;;;;;29.50;18.85;;;4.40;99.90;;;;;;5080768;28;20196;-45
2021/01/08 11:42:08;;;;;;;33.08;20.50;;;4.60;99.90;;;;;;5075679;28;20203;-46
2021/01/08 11:44:35;;;;;;;30.15;19.42;;;4.70;99.90;;;;;;5074283;28;20211;-46
2021/01/08 11:47:02;;;;;;;33.53;22.15;;;4.70;99.90;;;;;;5074944;28;20227;-48
2021/01/08 11:49:28;;;;;;;31.20;20.85;;;4.80;99.90;;;;;;5075220;28;20206;-47
2021/01/08 11:51:57;;;;;;;37.90;27.15;;;4.50;99.90;;;;;;5075530;28;20232;-45
2021/01/08 11:54:23;;;;;;;44.45;25.65;;;4.60;99.90;;;;;;5074725;28;20276;-45
2021/01/08 11:56:50;;;;;;;39.67;27.58;;;4.70;99.90;;;;;;5075607;28;20620;-46
2021/01/08 11:59:17;;;;;;;36.22;24.90;;;4.60;99.90;;;;;;5075215;28;20590;-45
2021/01/08 12:01:44;;;;;;;39.67;26.83;;;4.50;99.90;;;;;;5075985;28;20210;-45
2021/01/08 12:04:11;;;;;;;35.88;21.85;;;4.50;99.90;;;;;;5075047;28;20208;-45
2021/01/08 12:06:38;;;;;;;30.42;21.95;;;4.60;99.90;;;;;;5075555;28;20306;-44
2021/01/08 12:09:08;;;;;;;26.63;19.27;;;4.40;99.90;;;;;;5075113;28;20192;-47
2021/01/08 12:11:34;;;;;;;29.75;18.85;;;4.70;99.90;;;;;;5082376;28;20202;-46
2021/01/08 12:14:01;;;;;;;27.38;19.02;;;4.20;99.90;;;;;;5094805;28;20210;-46
2021/01/08 12:16:29;;;;;;;28.25;19.52;;;4.60;99.90;;;;;;5094939;28;20198;-46
2021/01/08 12:18:56;;;;;;;29.08;19.35;;;4.40;99.90;;;;;;5095206;28;20248;-45
2021/01/08 12:21:23;;;;;;;27.58;18.67;;;4.40;99.90;;;;;;5095339;28;20199;-47
2021/01/08 12:23:49;;;;;;;27.60;19.20;;;4.70;99.90;;;;;;5095379;28;20588;-46
2021/01/08 12:26:17;;;;;;;27.73;20.00;;;4.70;99.90;;;;;;5094776;28;20675;-46
2021/01/08 12:28:43;;;;;;;32.03;20.48;;;4.60;99.90;;;;;;5094985;28;20244;-45
2021/01/08 12:31:10;;;;;;;32.33;20.80;;;4.30;99.90;;;;;;5092117;28;20224;-46
2021/01/08 12:33:37;;;;;;;27.23;18.52;;;4.40;99.90;;;;;;5073809;28;20196;-47
2021/01/08 12:36:05;;;;;;;27.65;19.02;;;4.30;99.90;;;;;;5075134;28;20597;-46
2021/01/08 12:38:33;;;;;;;29.85;21.13;;;4.60;99.90;;;;;;5073863;28;20683;-47
2021/01/08 12:40:59;;;;;;;23.38;17.50;;;4.60;99.90;;;;;;5073708;28;20203;-47
2021/01/08 12:43:26;;;;;;;24.45;17.27;;;4.40;99.90;;;;;;5074986;28;20192;-46